sensor_id;sensor_type;location;lat;lon;timestamp;pressure;altitude;pressure_sealevel;temperature;humidity
54870;BME280;40756;-37.950;145.008;2022-07-10T00:01:54;102716.51;;;8.70;59.46
54870;BME280;40756;-37.950;145.008;2022-07-10T00:04:24;102710.51;;;9.11;59.43
54870;BME280;40756;-37.950;145.008;2022-07-10T00:06:54;102711.64;;;8.72;59.02
54870;BME280;40756;-37.950;145.008;2022-07-10T00:09:25;102712.80;;;9.06;58.83
54870;BME280;40756;-37.950;145.008;2022-07-10T00:11:55;102718.94;;;9.17;58.62
54870;BME280;40756;-37.950;145.008;2022-07-10T00:14:25;102713.06;;;9.44;58.65
54870;BME280;40756;-37.950;145.008;2022-07-10T00:16:57;102705.81;;;9.34;58.58
54870;BME280;40756;-37.950;145.008;2022-07-10T00:19:32;102699.16;;;9.29;58.61
54870;BME280;40756;-37.950;145.008;2022-07-10T00:22:01;102694.07;;;9.47;58.62
54870;BME280;40756;-37.950;145.008;2022-07-10T00:24:31;102696.85;;;9.44;58.72
54870;BME280;40756;-37.950;145.008;2022-07-10T00:27:06;102699.26;;;9.19;59.22
54870;BME280;40756;-37.950;145.008;2022-07-10T00:29:35;102698.82;;;9.25;59.13
54870;BME280;40756;-37.950;145.008;2022-07-10T00:32:05;102703.30;;;9.65;58.59
54870;BME280;40756;-37.950;145.008;2022-07-10T00:34:35;102708.57;;;9.73;58.38
54870;BME280;40756;-37.950;145.008;2022-07-10T00:37:08;102705.14;;;9.26;58.93
54870;BME280;40756;-37.950;145.008;2022-07-10T00:39:38;102699.38;;;9.77;58.54
54870;BME280;40756;-37.950;145.008;2022-07-10T00:42:09;102695.43;;;9.94;58.26
54870;BME280;40756;-37.950;145.008;2022-07-10T00:44:39;102690.50;;;9.64;58.44
54870;BME280;40756;-37.950;145.008;2022-07-10T00:47:14;102690.09;;;9.81;58.05
54870;BME280;40756;-37.950;145.008;2022-07-10T00:50:04;102690.28;;;9.69;58.38
54870;BME280;40756;-37.950;145.008;2022-07-10T00:52:36;102683.52;;;9.79;57.43
54870;BME280;40756;-37.950;145.008;2022-07-10T00:55:07;102678.79;;;9.77;57.46
54870;BME280;40756;-37.950;145.008;2022-07-10T00:57:37;102676.89;;;9.90;57.78
54870;BME280;40756;-37.950;145.008;2022-07-10T01:00:09;102681.18;;;9.99;58.04
54870;BME280;40756;-37.950;145.008;2022-07-10T01:02:48;102678.36;;;10.15;57.52
54870;BME280;40756;-37.950;145.008;2022-07-10T01:05:17;102675.12;;;10.16;57.43
54870;BME280;40756;-37.950;145.008;2022-07-10T01:07:47;102671.77;;;10.38;57.32
54870;BME280;40756;-37.950;145.008;2022-07-10T01:10:17;102672.90;;;10.18;57.18
54870;BME280;40756;-37.950;145.008;2022-07-10T01:12:47;102671.51;;;10.16;57.89
54870;BME280;40756;-37.950;145.008;2022-07-10T01:15:17;102667.96;;;10.17;57.63
54870;BME280;40756;-37.950;145.008;2022-07-10T01:17:46;102666.02;;;10.25;57.89
54870;BME280;40756;-37.950;145.008;2022-07-10T01:20:15;102669.47;;;10.31;58.05
54870;BME280;40756;-37.950;145.008;2022-07-10T01:22:45;102666.62;;;10.36;58.24
54870;BME280;40756;-37.950;145.008;2022-07-10T01:25:16;102663.33;;;10.14;57.28
54870;BME280;40756;-37.950;145.008;2022-07-10T01:27:45;102661.24;;;10.27;57.53
54870;BME280;40756;-37.950;145.008;2022-07-10T01:30:21;102654.05;;;10.29;57.94
54870;BME280;40756;-37.950;145.008;2022-07-10T01:32:50;102647.28;;;10.33;57.24
54870;BME280;40756;-37.950;145.008;2022-07-10T01:35:20;102643.03;;;10.23;56.97
54870;BME280;40756;-37.950;145.008;2022-07-10T01:37:50;102638.66;;;10.60;56.73
54870;BME280;40756;-37.950;145.008;2022-07-10T01:40:20;102643.15;;;10.69;56.57
54870;BME280;40756;-37.950;145.008;2022-07-10T01:42:49;102640.45;;;10.67;55.98
54870;BME280;40756;-37.950;145.008;2022-07-10T01:45:24;102633.06;;;10.87;56.20
54870;BME280;40756;-37.950;145.008;2022-07-10T01:48:00;102629.85;;;10.72;56.43
54870;BME280;40756;-37.950;145.008;2022-07-10T01:50:30;102621.92;;;11.01;56.60
54870;BME280;40756;-37.950;145.008;2022-07-10T01:53:01;102618.60;;;10.98;57.00
54870;BME280;40756;-37.950;145.008;2022-07-10T01:55:39;102607.46;;;11.11;57.13
54870;BME280;40756;-37.950;145.008;2022-07-10T01:58:08;102599.76;;;11.32;57.22
54870;BME280;40756;-37.950;145.008;2022-07-10T02:00:38;102597.68;;;10.82;57.18
54870;BME280;40756;-37.950;145.008;2022-07-10T02:03:22;102591.16;;;11.34;55.53
54870;BME280;40756;-37.950;145.008;2022-07-10T02:05:52;102590.23;;;11.06;55.44
54870;BME280;40756;-37.950;145.008;2022-07-10T02:08:22;102584.31;;;11.20;55.61
54870;BME280;40756;-37.950;145.008;2022-07-10T02:10:51;102582.69;;;11.34;56.18
54870;BME280;40756;-37.950;145.008;2022-07-10T02:13:20;102584.09;;;11.12;56.16
54870;BME280;40756;-37.950;145.008;2022-07-10T02:15:51;102577.32;;;11.11;56.45
54870;BME280;40756;-37.950;145.008;2022-07-10T02:18:22;102568.36;;;11.51;56.29
54870;BME280;40756;-37.950;145.008;2022-07-10T02:20:53;102557.85;;;11.79;55.64
54870;BME280;40756;-37.950;145.008;2022-07-10T02:23:22;102548.28;;;11.65;55.95
54870;BME280;40756;-37.950;145.008;2022-07-10T02:25:54;102538.28;;;11.68;55.20
54870;BME280;40756;-37.950;145.008;2022-07-10T02:28:25;102538.79;;;11.70;55.44
54870;BME280;40756;-37.950;145.008;2022-07-10T02:30:55;102535.71;;;11.92;55.42
54870;BME280;40756;-37.950;145.008;2022-07-10T02:33:25;102527.82;;;12.39;55.10
54870;BME280;40756;-37.950;145.008;2022-07-10T02:35:55;102525.22;;;12.50;54.12
54870;BME280;40756;-37.950;145.008;2022-07-10T02:38:25;102520.19;;;12.46;53.45
54870;BME280;40756;-37.950;145.008;2022-07-10T02:40:55;102512.73;;;12.58;52.21
54870;BME280;40756;-37.950;145.008;2022-07-10T02:43:26;102509.32;;;13.29;51.27
54870;BME280;40756;-37.950;145.008;2022-07-10T02:45:56;102503.56;;;13.56;50.23
54870;BME280;40756;-37.950;145.008;2022-07-10T02:48:25;102492.59;;;13.58;50.25
54870;BME280;40756;-37.950;145.008;2022-07-10T02:50:56;102482.95;;;13.19;50.34
54870;BME280;40756;-37.950;145.008;2022-07-10T02:53:51;102474.74;;;13.44;51.46
54870;BME280;40756;-37.950;145.008;2022-07-10T02:56:22;102469.03;;;13.66;51.22
54870;BME280;40756;-37.950;145.008;2022-07-10T02:58:52;102464.49;;;13.08;51.20
54870;BME280;40756;-37.950;145.008;2022-07-10T03:01:22;102458.01;;;12.86;51.14
54870;BME280;40756;-37.950;145.008;2022-07-10T03:08:17;102437.84;;;13.97;52.20
54870;BME280;40756;-37.950;145.008;2022-07-10T03:10:46;102433.70;;;13.09;51.00
54870;BME280;40756;-37.950;145.008;2022-07-10T03:13:16;102429.55;;;13.32;50.70
54870;BME280;40756;-37.950;145.008;2022-07-10T03:15:50;102430.58;;;13.58;50.54
54870;BME280;40756;-37.950;145.008;2022-07-10T03:18:23;102429.32;;;13.82;50.21
54870;BME280;40756;-37.950;145.008;2022-07-10T03:20:56;102424.78;;;13.36;50.19
54870;BME280;40756;-37.950;145.008;2022-07-10T03:27:18;102414.79;;;13.90;49.79
54870;BME280;40756;-37.950;145.008;2022-07-10T03:29:47;102405.23;;;14.00;49.79
54870;BME280;40756;-37.950;145.008;2022-07-10T03:32:17;102400.02;;;14.06;49.45
54870;BME280;40756;-37.950;145.008;2022-07-10T03:34:47;102393.46;;;13.84;49.14
54870;BME280;40756;-37.950;145.008;2022-07-10T03:37:17;102390.48;;;13.98;48.40
54870;BME280;40756;-37.950;145.008;2022-07-10T03:39:47;102384.06;;;13.87;48.25
54870;BME280;40756;-37.950;145.008;2022-07-10T03:43:23;102374.17;;;14.83;48.05
54870;BME280;40756;-37.950;145.008;2022-07-10T03:45:53;102362.76;;;14.27;47.83
54870;BME280;40756;-37.950;145.008;2022-07-10T03:48:22;102361.41;;;14.46;47.10
54870;BME280;40756;-37.950;145.008;2022-07-10T03:50:52;102357.00;;;14.74;46.42
54870;BME280;40756;-37.950;145.008;2022-07-10T03:53:21;102353.85;;;14.81;45.34
54870;BME280;40756;-37.950;145.008;2022-07-10T03:55:52;102350.07;;;14.93;46.52
54870;BME280;40756;-37.950;145.008;2022-07-10T03:58:24;102346.39;;;14.79;46.32
54870;BME280;40756;-37.950;145.008;2022-07-10T04:00:54;102341.25;;;15.11;45.57
54870;BME280;40756;-37.950;145.008;2022-07-10T04:03:24;102338.41;;;15.11;45.98
54870;BME280;40756;-37.950;145.008;2022-07-10T04:05:54;102337.48;;;15.22;45.22
54870;BME280;40756;-37.950;145.008;2022-07-10T04:08:23;102336.71;;;15.34;45.54
54870;BME280;40756;-37.950;145.008;2022-07-10T04:10:53;102335.42;;;14.87;44.36
54870;BME280;40756;-37.950;145.008;2022-07-10T04:14:08;102335.75;;;15.10;45.76
54870;BME280;40756;-37.950;145.008;2022-07-10T04:16:38;102329.09;;;14.92;45.84
54870;BME280;40756;-37.950;145.008;2022-07-10T04:19:07;102328.13;;;15.07;44.49
54870;BME280;40756;-37.950;145.008;2022-07-10T04:21:36;102327.86;;;15.18;45.16
54870;BME280;40756;-37.950;145.008;2022-07-10T04:24:06;102321.58;;;15.25;44.17
54870;BME280;40756;-37.950;145.008;2022-07-10T04:26:41;102319.64;;;15.43;44.05
54870;BME280;40756;-37.950;145.008;2022-07-10T04:29:12;102317.09;;;15.77;44.55
54870;BME280;40756;-37.950;145.008;2022-07-10T04:31:41;102318.12;;;15.72;43.10
54870;BME280;40756;-37.950;145.008;2022-07-10T04:34:11;102314.59;;;15.90;43.17
54870;BME280;40756;-37.950;145.008;2022-07-10T04:37:05;102310.92;;;16.23;42.48
54870;BME280;40756;-37.950;145.008;2022-07-10T04:39:51;102303.77;;;15.64;41.43
54870;BME280;40756;-37.950;145.008;2022-07-10T04:42:21;102298.87;;;15.93;41.46
54870;BME280;40756;-37.950;145.008;2022-07-10T04:45:01;102294.29;;;15.98;41.52
54870;BME280;40756;-37.950;145.008;2022-07-10T04:47:30;102291.48;;;15.84;42.52
54870;BME280;40756;-37.950;145.008;2022-07-10T04:50:00;102296.52;;;15.26;41.66
54870;BME280;40756;-37.950;145.008;2022-07-10T04:52:29;102294.22;;;15.62;41.32
54870;BME280;40756;-37.950;145.008;2022-07-10T04:54:59;102294.73;;;15.57;42.08
54870;BME280;40756;-37.950;145.008;2022-07-10T04:57:30;102293.31;;;15.84;42.43
54870;BME280;40756;-37.950;145.008;2022-07-10T04:59:59;102290.26;;;15.73;41.43
54870;BME280;40756;-37.950;145.008;2022-07-10T05:02:29;102294.41;;;15.39;41.49
54870;BME280;40756;-37.950;145.008;2022-07-10T05:04:58;102292.69;;;15.77;40.56
54870;BME280;40756;-37.950;145.008;2022-07-10T05:07:28;102298.30;;;15.82;41.43
54870;BME280;40756;-37.950;145.008;2022-07-10T05:09:58;102297.70;;;14.97;44.69
54870;BME280;40756;-37.950;145.008;2022-07-10T05:12:27;102297.28;;;15.28;44.96
54870;BME280;40756;-37.950;145.008;2022-07-10T05:14:57;102294.50;;;14.76;45.45
54870;BME280;40756;-37.950;145.008;2022-07-10T05:17:26;102293.84;;;15.06;44.96
54870;BME280;40756;-37.950;145.008;2022-07-10T05:19:57;102296.08;;;15.07;46.55
54870;BME280;40756;-37.950;145.008;2022-07-10T05:22:28;102297.88;;;14.94;47.26
54870;BME280;40756;-37.950;145.008;2022-07-10T05:25:12;102295.28;;;14.77;47.70
54870;BME280;40756;-37.950;145.008;2022-07-10T05:27:43;102293.63;;;14.50;47.92
54870;BME280;40756;-37.950;145.008;2022-07-10T05:30:13;102290.84;;;14.93;46.82
54870;BME280;40756;-37.950;145.008;2022-07-10T05:32:47;102292.43;;;14.82;46.30
54870;BME280;40756;-37.950;145.008;2022-07-10T05:35:17;102293.00;;;14.92;46.04
54870;BME280;40756;-37.950;145.008;2022-07-10T05:37:47;102291.75;;;15.31;45.28
54870;BME280;40756;-37.950;145.008;2022-07-10T05:40:16;102293.72;;;15.28;44.59
54870;BME280;40756;-37.950;145.008;2022-07-10T05:42:46;102293.07;;;15.68;42.38
54870;BME280;40756;-37.950;145.008;2022-07-10T05:45:16;102295.85;;;15.96;43.23
54870;BME280;40756;-37.950;145.008;2022-07-10T05:47:46;102300.90;;;15.96;43.80
54870;BME280;40756;-37.950;145.008;2022-07-10T05:50:15;102298.39;;;15.95;44.09
54870;BME280;40756;-37.950;145.008;2022-07-10T05:52:51;102297.61;;;16.29;43.55
54870;BME280;40756;-37.950;145.008;2022-07-10T05:55:20;102298.08;;;15.75;43.10
54870;BME280;40756;-37.950;145.008;2022-07-10T05:57:52;102298.76;;;16.13;42.36
54870;BME280;40756;-37.950;145.008;2022-07-10T06:00:22;102298.66;;;16.23;41.79
54870;BME280;40756;-37.950;145.008;2022-07-10T06:02:52;102301.54;;;16.00;42.71
54870;BME280;40756;-37.950;145.008;2022-07-10T06:05:21;102300.41;;;16.35;40.81
54870;BME280;40756;-37.950;145.008;2022-07-10T06:07:51;102300.32;;;16.54;41.21
54870;BME280;40756;-37.950;145.008;2022-07-10T06:10:22;102302.85;;;16.44;40.98
54870;BME280;40756;-37.950;145.008;2022-07-10T06:12:52;102301.44;;;16.50;41.24
54870;BME280;40756;-37.950;145.008;2022-07-10T06:15:21;102303.74;;;16.17;41.87
54870;BME280;40756;-37.950;145.008;2022-07-10T06:17:51;102307.36;;;16.20;41.52
54870;BME280;40756;-37.950;145.008;2022-07-10T06:20:26;102306.50;;;16.15;41.61
54870;BME280;40756;-37.950;145.008;2022-07-10T06:23:01;102307.07;;;15.81;42.40
54870;BME280;40756;-37.950;145.008;2022-07-10T06:25:30;102311.51;;;15.62;42.96
54870;BME280;40756;-37.950;145.008;2022-07-10T06:28:00;102315.41;;;15.30;43.75
54870;BME280;40756;-37.950;145.008;2022-07-10T06:30:30;102317.22;;;15.18;44.22
54870;BME280;40756;-37.950;145.008;2022-07-10T06:33:07;102316.23;;;15.27;45.12
54870;BME280;40756;-37.950;145.008;2022-07-10T06:35:38;102320.63;;;15.19;45.69
54870;BME280;40756;-37.950;145.008;2022-07-10T06:38:08;102319.72;;;15.09;45.98
54870;BME280;40756;-37.950;145.008;2022-07-10T06:41:15;102319.12;;;14.77;46.02
54870;BME280;40756;-37.950;145.008;2022-07-10T06:43:44;102319.17;;;14.54;46.57
54870;BME280;40756;-37.950;145.008;2022-07-10T06:46:14;102319.44;;;14.68;46.55
54870;BME280;40756;-37.950;145.008;2022-07-10T06:48:43;102318.78;;;14.57;47.08
54870;BME280;40756;-37.950;145.008;2022-07-10T06:51:13;102318.24;;;14.60;46.93
54870;BME280;40756;-37.950;145.008;2022-07-10T06:53:48;102314.33;;;14.30;47.16
54870;BME280;40756;-37.950;145.008;2022-07-10T06:56:18;102315.05;;;13.97;47.75
54870;BME280;40756;-37.950;145.008;2022-07-10T06:58:53;102314.83;;;13.72;47.84
54870;BME280;40756;-37.950;145.008;2022-07-10T07:01:34;102313.30;;;14.20;48.02
54870;BME280;40756;-37.950;145.008;2022-07-10T07:04:04;102315.62;;;13.91;48.48
54870;BME280;40756;-37.950;145.008;2022-07-10T07:06:36;102314.14;;;13.75;48.78
54870;BME280;40756;-37.950;145.008;2022-07-10T07:09:06;102312.53;;;13.55;49.21
54870;BME280;40756;-37.950;145.008;2022-07-10T07:11:35;102310.65;;;13.33;49.37
54870;BME280;40756;-37.950;145.008;2022-07-10T07:14:05;102310.49;;;13.13;49.71
54870;BME280;40756;-37.950;145.008;2022-07-10T07:16:34;102307.80;;;12.88;50.07
54870;BME280;40756;-37.950;145.008;2022-07-10T07:19:04;102306.80;;;13.22;50.10
54870;BME280;40756;-37.950;145.008;2022-07-10T07:21:43;102305.98;;;13.01;50.31
54870;BME280;40756;-37.950;145.008;2022-07-10T07:24:13;102304.49;;;12.85;50.74
54870;BME280;40756;-37.950;145.008;2022-07-10T07:26:42;102306.92;;;12.71;50.76
54870;BME280;40756;-37.950;145.008;2022-07-10T07:29:12;102309.78;;;12.33;51.22
54870;BME280;40756;-37.950;145.008;2022-07-10T07:31:42;102313.37;;;12.46;51.49
54870;BME280;40756;-37.950;145.008;2022-07-10T07:34:19;102316.77;;;12.62;51.77
54870;BME280;40756;-37.950;145.008;2022-07-10T07:36:49;102319.02;;;12.17;51.86
54870;BME280;40756;-37.950;145.008;2022-07-10T07:39:18;102320.15;;;12.01;52.39
54870;BME280;40756;-37.950;145.008;2022-07-10T07:41:48;102320.63;;;12.43;52.20
54870;BME280;40756;-37.950;145.008;2022-07-10T07:44:17;102318.45;;;12.47;52.05
54870;BME280;40756;-37.950;145.008;2022-07-10T07:46:47;102324.09;;;11.88;52.06
54870;BME280;40756;-37.950;145.008;2022-07-10T07:49:16;102327.56;;;12.03;52.29
54870;BME280;40756;-37.950;145.008;2022-07-10T07:51:46;102328.94;;;12.22;52.56
54870;BME280;40756;-37.950;145.008;2022-07-10T07:54:35;102329.30;;;12.12;52.69
54870;BME280;40756;-37.950;145.008;2022-07-10T07:57:05;102327.48;;;11.98;52.85
54870;BME280;40756;-37.950;145.008;2022-07-10T07:59:37;102328.97;;;11.82;53.17
54870;BME280;40756;-37.950;145.008;2022-07-10T08:02:16;102339.87;;;12.19;53.16
54870;BME280;40756;-37.950;145.008;2022-07-10T08:04:45;102344.35;;;11.55;53.40
54870;BME280;40756;-37.950;145.008;2022-07-10T08:07:15;102342.46;;;11.68;53.60
54870;BME280;40756;-37.950;145.008;2022-07-10T08:09:50;102344.16;;;11.58;53.63
54870;BME280;40756;-37.950;145.008;2022-07-10T08:12:19;102349.48;;;11.31;53.86
54870;BME280;40756;-37.950;145.008;2022-07-10T08:14:49;102351.34;;;11.49;53.89
54870;BME280;40756;-37.950;145.008;2022-07-10T08:17:19;102354.09;;;11.16;54.00
54870;BME280;40756;-37.950;145.008;2022-07-10T08:19:49;102357.25;;;11.35;54.02
54870;BME280;40756;-37.950;145.008;2022-07-10T08:22:18;102361.85;;;11.02;54.29
54870;BME280;40756;-37.950;145.008;2022-07-10T08:25:06;102361.58;;;11.16;54.41
54870;BME280;40756;-37.950;145.008;2022-07-10T08:27:36;102362.11;;;11.11;54.56
54870;BME280;40756;-37.950;145.008;2022-07-10T08:30:07;102359.91;;;11.34;54.51
54870;BME280;40756;-37.950;145.008;2022-07-10T08:32:37;102360.04;;;11.00;54.71
54870;BME280;40756;-37.950;145.008;2022-07-10T08:35:09;102358.19;;;10.98;54.79
54870;BME280;40756;-37.950;145.008;2022-07-10T08:37:39;102356.61;;;10.89;54.81
54870;BME280;40756;-37.950;145.008;2022-07-10T08:40:22;102359.30;;;11.03;54.94
54870;BME280;40756;-37.950;145.008;2022-07-10T08:42:51;102358.53;;;10.94;55.07
54870;BME280;40756;-37.950;145.008;2022-07-10T08:45:22;102360.64;;;10.92;55.09
54870;BME280;40756;-37.950;145.008;2022-07-10T08:47:51;102364.76;;;10.64;55.18
54870;BME280;40756;-37.950;145.008;2022-07-10T08:50:24;102364.35;;;10.55;55.31
54870;BME280;40756;-37.950;145.008;2022-07-10T08:53:04;102364.29;;;10.80;55.27
54870;BME280;40756;-37.950;145.008;2022-07-10T08:55:50;102364.95;;;10.72;55.23
54870;BME280;40756;-37.950;145.008;2022-07-10T08:58:21;102366.41;;;10.66;55.30
54870;BME280;40756;-37.950;145.008;2022-07-10T09:00:53;102367.74;;;10.35;55.44
54870;BME280;40756;-37.950;145.008;2022-07-10T09:03:42;102369.72;;;11.03;55.12
54870;BME280;40756;-37.950;145.008;2022-07-10T09:06:13;102369.65;;;10.55;55.32
54870;BME280;40756;-37.950;145.008;2022-07-10T09:09:01;102371.12;;;10.56;55.61
54870;BME280;40756;-37.950;145.008;2022-07-10T09:11:31;102370.20;;;10.53;55.39
54870;BME280;40756;-37.950;145.008;2022-07-10T09:14:03;102373.18;;;10.47;55.42
54870;BME280;40756;-37.950;145.008;2022-07-10T09:16:35;102377.76;;;10.33;55.46
54870;BME280;40756;-37.950;145.008;2022-07-10T09:19:24;102383.06;;;10.34;55.29
54870;BME280;40756;-37.950;145.008;2022-07-10T09:22:05;102382.17;;;10.27;55.51
54870;BME280;40756;-37.950;145.008;2022-07-10T09:24:37;102378.77;;;10.21;55.79
54870;BME280;40756;-37.950;145.008;2022-07-10T09:27:08;102371.93;;;10.18;55.72
54870;BME280;40756;-37.950;145.008;2022-07-10T09:29:48;102374.38;;;10.43;55.69
54870;BME280;40756;-37.950;145.008;2022-07-10T09:32:18;102380.58;;;10.17;55.76
54870;BME280;40756;-37.950;145.008;2022-07-10T09:35:20;102384.29;;;10.61;56.41
54870;BME280;40756;-37.950;145.008;2022-07-10T09:37:49;102382.81;;;10.15;55.86
54870;BME280;40756;-37.950;145.008;2022-07-10T09:40:20;102381.09;;;10.15;55.68
54870;BME280;40756;-37.950;145.008;2022-07-10T09:42:54;102382.40;;;10.10;55.82
54870;BME280;40756;-37.950;145.008;2022-07-10T09:45:23;102383.29;;;10.31;55.61
54870;BME280;40756;-37.950;145.008;2022-07-10T09:47:58;102387.65;;;10.11;55.52
54870;BME280;40756;-37.950;145.008;2022-07-10T09:50:35;102388.12;;;10.08;55.39
54870;BME280;40756;-37.950;145.008;2022-07-10T09:53:06;102391.64;;;10.18;55.29
54870;BME280;40756;-37.950;145.008;2022-07-10T09:55:37;102393.50;;;10.27;55.35
54870;BME280;40756;-37.950;145.008;2022-07-10T09:58:07;102396.00;;;9.97;55.22
54870;BME280;40756;-37.950;145.008;2022-07-10T10:00:39;102398.01;;;10.03;55.03
54870;BME280;40756;-37.950;145.008;2022-07-10T10:03:11;102399.72;;;10.24;54.76
54870;BME280;40756;-37.950;145.008;2022-07-10T10:05:44;102399.79;;;10.00;54.76
54870;BME280;40756;-37.950;145.008;2022-07-10T10:08:19;102399.87;;;9.93;54.62
54870;BME280;40756;-37.950;145.008;2022-07-10T10:10:55;102399.02;;;9.94;55.00
54870;BME280;40756;-37.950;145.008;2022-07-10T10:13:26;102399.34;;;10.38;55.06
54870;BME280;40756;-37.950;145.008;2022-07-10T10:15:56;102399.08;;;9.91;55.11
54870;BME280;40756;-37.950;145.008;2022-07-10T10:18:27;102399.23;;;9.94;54.74
54870;BME280;40756;-37.950;145.008;2022-07-10T10:20:57;102403.55;;;10.02;54.73
54870;BME280;40756;-37.950;145.008;2022-07-10T10:23:27;102401.74;;;10.06;54.63
54870;BME280;40756;-37.950;145.008;2022-07-10T10:25:58;102402.35;;;10.30;54.64
54870;BME280;40756;-37.950;145.008;2022-07-10T10:28:28;102407.57;;;10.18;54.30
54870;BME280;40756;-37.950;145.008;2022-07-10T10:31:24;102413.48;;;10.47;54.03
54870;BME280;40756;-37.950;145.008;2022-07-10T10:34:10;102413.04;;;10.55;53.77
54870;BME280;40756;-37.950;145.008;2022-07-10T10:36:47;102411.93;;;10.26;54.97
54870;BME280;40756;-37.950;145.008;2022-07-10T10:39:18;102412.33;;;10.77;53.90
54870;BME280;40756;-37.950;145.008;2022-07-10T10:41:51;102412.99;;;10.77;52.87
54870;BME280;40756;-37.950;145.008;2022-07-10T10:44:26;102411.98;;;10.54;51.98
54870;BME280;40756;-37.950;145.008;2022-07-10T10:46:57;102410.08;;;10.97;51.31
54870;BME280;40756;-37.950;145.008;2022-07-10T10:49:46;102407.60;;;10.81;51.99
54870;BME280;40756;-37.950;145.008;2022-07-10T10:52:16;102408.73;;;10.77;51.33
54870;BME280;40756;-37.950;145.008;2022-07-10T10:55:07;102409.56;;;10.96;50.49
54870;BME280;40756;-37.950;145.008;2022-07-10T10:58:18;102410.76;;;11.06;50.84
54870;BME280;40756;-37.950;145.008;2022-07-10T11:00:48;102413.29;;;11.02;50.95
54870;BME280;40756;-37.950;145.008;2022-07-10T11:03:22;102415.64;;;10.76;51.41
54870;BME280;40756;-37.950;145.008;2022-07-10T11:05:52;102414.72;;;10.83;51.40
54870;BME280;40756;-37.950;145.008;2022-07-10T11:08:43;102411.66;;;10.79;51.80
54870;BME280;40756;-37.950;145.008;2022-07-10T11:11:45;102413.26;;;10.80;51.93
54870;BME280;40756;-37.950;145.008;2022-07-10T11:14:27;102414.31;;;10.51;51.91
54870;BME280;40756;-37.950;145.008;2022-07-10T11:16:58;102418.47;;;10.54;51.68
54870;BME280;40756;-37.950;145.008;2022-07-10T11:19:30;102414.83;;;10.46;51.83
54870;BME280;40756;-37.950;145.008;2022-07-10T11:23:02;102410.79;;;10.61;52.01
54870;BME280;40756;-37.950;145.008;2022-07-10T11:25:51;102409.63;;;10.60;52.16
54870;BME280;40756;-37.950;145.008;2022-07-10T11:28:49;102405.16;;;10.79;52.14
54870;BME280;40756;-37.950;145.008;2022-07-10T11:31:20;102397.17;;;10.61;51.94
54870;BME280;40756;-37.950;145.008;2022-07-10T11:33:51;102392.57;;;10.75;52.23
54870;BME280;40756;-37.950;145.008;2022-07-10T11:36:22;102389.83;;;10.55;52.25
54870;BME280;40756;-37.950;145.008;2022-07-10T11:38:57;102392.02;;;10.78;51.95
54870;BME280;40756;-37.950;145.008;2022-07-10T11:41:33;102393.45;;;10.72;52.02
54870;BME280;40756;-37.950;145.008;2022-07-10T11:44:04;102398.57;;;10.40;52.11
54870;BME280;40756;-37.950;145.008;2022-07-10T11:46:34;102399.19;;;10.39;52.03
54870;BME280;40756;-37.950;145.008;2022-07-10T11:49:05;102399.77;;;10.29;52.44
54870;BME280;40756;-37.950;145.008;2022-07-10T11:51:36;102400.73;;;10.24;52.60
54870;BME280;40756;-37.950;145.008;2022-07-10T11:54:09;102396.55;;;10.10;52.36
54870;BME280;40756;-37.950;145.008;2022-07-10T11:56:40;102389.99;;;10.44;52.23
54870;BME280;40756;-37.950;145.008;2022-07-10T11:59:28;102380.29;;;10.32;51.85
54870;BME280;40756;-37.950;145.008;2022-07-10T12:01:57;102380.01;;;10.24;51.43
54870;BME280;40756;-37.950;145.008;2022-07-10T12:04:31;102380.69;;;10.52;51.06
54870;BME280;40756;-37.950;145.008;2022-07-10T12:07:00;102382.03;;;10.27;50.85
54870;BME280;40756;-37.950;145.008;2022-07-10T12:09:35;102381.95;;;10.36;51.05
54870;BME280;40756;-37.950;145.008;2022-07-10T12:12:06;102380.72;;;10.15;50.74
54870;BME280;40756;-37.950;145.008;2022-07-10T12:14:35;102379.81;;;10.14;51.11
54870;BME280;40756;-37.950;145.008;2022-07-10T12:17:11;102377.96;;;10.54;50.45
54870;BME280;40756;-37.950;145.008;2022-07-10T12:19:41;102373.90;;;10.32;50.50
54870;BME280;40756;-37.950;145.008;2022-07-10T12:22:10;102374.82;;;10.05;50.39
54870;BME280;40756;-37.950;145.008;2022-07-10T12:24:45;102374.87;;;10.25;50.16
54870;BME280;40756;-37.950;145.008;2022-07-10T12:28:07;102378.14;;;10.41;50.16
54870;BME280;40756;-37.950;145.008;2022-07-10T12:30:42;102381.35;;;10.50;50.57
54870;BME280;40756;-37.950;145.008;2022-07-10T12:33:13;102382.60;;;10.42;50.90
54870;BME280;40756;-37.950;145.008;2022-07-10T12:36:00;102382.51;;;10.29;51.16
54870;BME280;40756;-37.950;145.008;2022-07-10T12:38:31;102388.38;;;10.09;51.47
54870;BME280;40756;-37.950;145.008;2022-07-10T12:41:12;102390.68;;;10.13;52.09
54870;BME280;40756;-37.950;145.008;2022-07-10T12:43:42;102397.48;;;9.99;52.44
54870;BME280;40756;-37.950;145.008;2022-07-10T12:46:25;102400.76;;;9.84;52.54
54870;BME280;40756;-37.950;145.008;2022-07-10T12:49:10;102399.84;;;9.76;52.79
54870;BME280;40756;-37.950;145.008;2022-07-10T12:51:46;102405.11;;;9.63;52.91
54870;BME280;40756;-37.950;145.008;2022-07-10T12:54:37;102406.54;;;9.53;53.09
54870;BME280;40756;-37.950;145.008;2022-07-10T12:57:07;102409.08;;;9.53;53.28
54870;BME280;40756;-37.950;145.008;2022-07-10T12:59:38;102402.38;;;9.43;53.50
54870;BME280;40756;-37.950;145.008;2022-07-10T13:02:19;102398.93;;;9.64;53.75